AirNav   ATP
 
 973 users online  

MU27 Woodfield Airpark Inc
Lockwood, Missouri, USA

GOING TO LOCKWOOD?


FAA INFORMATION EFFECTIVE 08 NOVEMBER 2018

Location

FAA Identifier: MU27
Lat/Long: 37-28-05.1650N / 093-55-45.7740W
37-28.086083N / 093-55.762900W
37.4681014 / -93.9293817
(estimated)
Elevation: 1050 ft. / 320 m (estimated)
Variation: 05E (1985)
From city: 4 miles NE of LOCKWOOD, MO
Time zone: UTC -6 (UTC -5 during Daylight Saving Time)
Zip code: 65682

Airport Operations

Airport use: Private use. Permission required prior to landing
Activation date: 06/1981
Control tower: no
ARTCC: KANSAS CITY CENTER
FSS: COLUMBIA FLIGHT SERVICE STATION
Attendance: CONTINUOUS
Wind indicator: yes
Segmented circle: no

Nearby radio navigation aids

VOR radial/distance  VOR name  Freq  Var
SGFr279/29.2SPRINGFIELD VORTAC116.9004E

Airport Services

Runway Information

Runway E/W

Dimensions: 2600 x 120 ft. / 792 x 37 m
Surface: turf
RUNWAY E  RUNWAY W
Traffic pattern: leftleft
Obstructions: 35 ft. fence, 5 ft. from runwaynone

Runway NE/SW

Dimensions: 1700 x 120 ft. / 518 x 37 m
Surface: turf
RUNWAY NE  RUNWAY SW
Traffic pattern: leftleft
Obstructions: 35 ft. fence, 10 ft. from runwaynone

Airport Ownership and Management from official FAA records

Ownership: Privately-owned
Owner: WOODFIELD AIRPORT OWNERS LLC
22 WOODFIELD LN
GREENFIELD, MO 65661
Phone (253) 820-4967
Manager: DAVID KRAHN
22 WOODFIELD LN
GREENFIELD, MO 65661
Phone (253) 820-4967

Airport Operational Statistics

Aircraft based on the field: 2
Single engine airplanes: 2
    

Instrument Procedures

There are no published instrument procedures at MU27.

Some nearby airports with instrument procedures:

MO3 - Stockton Municipal Airport (13 nm NE)
KLLU - Lamar Municipal Airport (18 nm W)
M17 - Bolivar Municipal Airport (29 nm E)
KSGF - Springfield-Branson National Airport (29 nm SE)
KNVD - Nevada Municipal Airport (29 nm NW)
 
Loc | Ops | Rwys | IFR | FBO | Links
Com | Nav | Svcs | Stats | Notes

Kansas City Aviation Department
 
Area around MU27 (Woodfield Airpark Inc)
 
Road maps at: MapQuest Bing Google
 
Aerial photo
No photo
 
Sectional chart

 
Airport distance calculator
Flying to Woodfield Airpark Inc? Find the distance to fly.

From to MU27

Sunrise and sunset
Times for 18-Nov-2018
 Local
(UTC-6)
 Zulu
(UTC)
Morning civil twilight06:3112:31
Sunrise07:0013:00
Sunset17:0223:02
Evening civil twilight17:3023:30

Current date and time
Zulu (UTC)  18-Nov-2018 18:29:51
Local (UTC-6)  18-Nov-2018 12:29:51
 
METAR
KSGF 
30nm SE 
181800Z 35009KT 3SM BR BKN003 OVC006 02/01 A3023 RMK AO2 T00170006
KJLN 
33nm SW 
181753Z 01010KT 3SM BR OVC005 00/M01 A3029 RMK AO2 FZRAE1654 SLP261 P0000 60004 I1000 I6002 T00001006 10017 21006 58004
KHFJ 
34nm S 
181815Z AUTO 36007KT 4SM RA OVC004 00/00 A3023 RMK AO2
KPTS 
38nm W 
181815Z AUTO 36006KT 7SM OVC007 00/M02 A3028 RMK AO2 T10011016
KEOS 
45nm SW 
SuperAWOS
181755Z AUTO 35005KT 2 1/2SM BR 00/00 A3023
TAF
KSGF 
30nm SE 
181720Z 1818/1918 02010KT P6SM -DZ OVC005 TEMPO 1818/1821 5SM -SHRA BR OVC003 FM182100 02006KT P6SM OVC007 FM190200 VRB04KT 4SM BR OVC007
KJLN 
33nm SW 
181720Z 1818/1918 36010KT 2SM -DZ BR OVC003 FM182000 01007KT 4SM -DZ BR OVC007 FM190100 VRB04KT 6SM BR OVC007 FM191300 24005KT P6SM SKC
NOTAMs
Click for the latest NOTAMs
NOTAMs are issued by the DoD/FAA and will open in a separate window not controlled by AirNav.

 

 
 

Would you like to see your business listed on this page?

 If your business provides an interesting product or service to pilots, flight crews, aircraft, or users of the Woodfield Airpark Inc, you should consider listing it here.  To start the listing process, click on the button below
 
Add a business
 

Other Pages about Woodfield Airpark Inc

Update a link
 
Copyright © AirNav, LLC. All rights reserved. Privacy Policy  Contact